sensor_id;sensor_type;location;lat;lon;timestamp;P1;durP1;ratioP1;P2;durP2;ratioP2
39612;SDS011;25303;48.896;13.342;2023-05-10T00:02:37;2.45;;;1.70;;
39612;SDS011;25303;48.896;13.342;2023-05-10T00:05:20;1.85;;;1.45;;
39612;SDS011;25303;48.896;13.342;2023-05-10T00:08:03;2.25;;;1.55;;
39612;SDS011;25303;48.896;13.342;2023-05-10T00:10:46;2.25;;;1.45;;
39612;SDS011;25303;48.896;13.342;2023-05-10T00:13:31;2.20;;;1.70;;
39612;SDS011;25303;48.896;13.342;2023-05-10T00:16:14;2.28;;;1.50;;
39612;SDS011;25303;48.896;13.342;2023-05-10T00:18:57;2.83;;;1.83;;
39612;SDS011;25303;48.896;13.342;2023-05-10T00:21:39;2.38;;;1.55;;
39612;SDS011;25303;48.896;13.342;2023-05-10T00:24:22;1.83;;;1.40;;
39612;SDS011;25303;48.896;13.342;2023-05-10T00:27:05;2.10;;;1.33;;
39612;SDS011;25303;48.896;13.342;2023-05-10T00:29:50;2.25;;;1.40;;
39612;SDS011;25303;48.896;13.342;2023-05-10T00:32:33;4.25;;;1.70;;
39612;SDS011;25303;48.896;13.342;2023-05-10T00:35:16;3.10;;;2.03;;
39612;SDS011;25303;48.896;13.342;2023-05-10T00:37:59;3.50;;;2.00;;
39612;SDS011;25303;48.896;13.342;2023-05-10T00:40:42;3.15;;;2.17;;
39612;SDS011;25303;48.896;13.342;2023-05-10T00:43:32;4.95;;;2.15;;
39612;SDS011;25303;48.896;13.342;2023-05-10T00:46:17;2.80;;;1.88;;
39612;SDS011;25303;48.896;13.342;2023-05-10T00:49:00;3.03;;;2.00;;
39612;SDS011;25303;48.896;13.342;2023-05-10T00:51:43;3.45;;;1.90;;
39612;SDS011;25303;48.896;13.342;2023-05-10T00:54:27;3.20;;;1.70;;
39612;SDS011;25303;48.896;13.342;2023-05-10T00:57:10;3.80;;;1.75;;
39612;SDS011;25303;48.896;13.342;2023-05-10T00:59:53;3.42;;;2.17;;
39612;SDS011;25303;48.896;13.342;2023-05-10T01:02:38;2.00;;;1.55;;
39612;SDS011;25303;48.896;13.342;2023-05-10T01:05:21;2.80;;;1.40;;
39612;SDS011;25303;48.896;13.342;2023-05-10T01:08:04;3.55;;;2.00;;
39612;SDS011;25303;48.896;13.342;2023-05-10T01:10:48;4.43;;;1.85;;
39612;SDS011;25303;48.896;13.342;2023-05-10T01:13:32;2.60;;;1.95;;
39612;SDS011;25303;48.896;13.342;2023-05-10T01:16:17;3.40;;;1.88;;
39612;SDS011;25303;48.896;13.342;2023-05-10T01:19:11;2.22;;;1.63;;
39612;SDS011;25303;48.896;13.342;2023-05-10T01:22:02;3.25;;;1.98;;
39612;SDS011;25303;48.896;13.342;2023-05-10T01:25:03;2.25;;;1.83;;
39612;SDS011;25303;48.896;13.342;2023-05-10T01:28:14;2.70;;;1.80;;
39612;SDS011;25303;48.896;13.342;2023-05-10T01:31:18;4.25;;;1.40;;
39612;SDS011;25303;48.896;13.342;2023-05-10T01:34:15;5.32;;;2.50;;
39612;SDS011;25303;48.896;13.342;2023-05-10T01:37:02;2.75;;;1.60;;
39612;SDS011;25303;48.896;13.342;2023-05-10T01:39:53;3.20;;;2.20;;
39612;SDS011;25303;48.896;13.342;2023-05-10T01:42:43;2.72;;;1.80;;
39612;SDS011;25303;48.896;13.342;2023-05-10T01:45:30;3.13;;;1.73;;
39612;SDS011;25303;48.896;13.342;2023-05-10T01:48:19;2.75;;;1.85;;
39612;SDS011;25303;48.896;13.342;2023-05-10T01:51:04;3.20;;;1.93;;
39612;SDS011;25303;48.896;13.342;2023-05-10T01:53:49;2.58;;;1.67;;
39612;SDS011;25303;48.896;13.342;2023-05-10T01:56:36;2.58;;;1.80;;
39612;SDS011;25303;48.896;13.342;2023-05-10T01:59:21;2.70;;;1.50;;
39612;SDS011;25303;48.896;13.342;2023-05-10T02:02:06;2.55;;;1.73;;
39612;SDS011;25303;48.896;13.342;2023-05-10T02:04:53;2.50;;;1.48;;
39612;SDS011;25303;48.896;13.342;2023-05-10T02:07:39;2.60;;;1.33;;
39612;SDS011;25303;48.896;13.342;2023-05-10T02:10:23;1.90;;;1.30;;
39612;SDS011;25303;48.896;13.342;2023-05-10T02:13:06;2.08;;;1.33;;
39612;SDS011;25303;48.896;13.342;2023-05-10T02:15:51;3.35;;;1.92;;
39612;SDS011;25303;48.896;13.342;2023-05-10T02:18:35;2.28;;;1.60;;
39612;SDS011;25303;48.896;13.342;2023-05-10T02:21:18;2.33;;;1.67;;
39612;SDS011;25303;48.896;13.342;2023-05-10T02:24:04;4.88;;;2.05;;
39612;SDS011;25303;48.896;13.342;2023-05-10T02:26:50;2.53;;;1.73;;
39612;SDS011;25303;48.896;13.342;2023-05-10T02:29:36;2.60;;;1.90;;
39612;SDS011;25303;48.896;13.342;2023-05-10T02:32:19;2.80;;;1.90;;
39612;SDS011;25303;48.896;13.342;2023-05-10T02:35:05;2.53;;;1.80;;
39612;SDS011;25303;48.896;13.342;2023-05-10T02:37:49;2.25;;;1.67;;
39612;SDS011;25303;48.896;13.342;2023-05-10T02:40:34;2.45;;;1.58;;
39612;SDS011;25303;48.896;13.342;2023-05-10T02:43:19;2.90;;;2.17;;
39612;SDS011;25303;48.896;13.342;2023-05-10T02:46:06;5.75;;;2.00;;
39612;SDS011;25303;48.896;13.342;2023-05-10T02:48:49;2.58;;;1.60;;
39612;SDS011;25303;48.896;13.342;2023-05-10T02:51:34;2.70;;;1.80;;
39612;SDS011;25303;48.896;13.342;2023-05-10T02:54:19;3.15;;;1.77;;
39612;SDS011;25303;48.896;13.342;2023-05-10T02:57:05;3.80;;;2.03;;
39612;SDS011;25303;48.896;13.342;2023-05-10T02:59:49;2.42;;;1.60;;
39612;SDS011;25303;48.896;13.342;2023-05-10T03:02:32;2.95;;;1.80;;
39612;SDS011;25303;48.896;13.342;2023-05-10T03:05:16;2.28;;;1.58;;
39612;SDS011;25303;48.896;13.342;2023-05-10T03:07:59;3.17;;;1.75;;
39612;SDS011;25303;48.896;13.342;2023-05-10T03:10:47;2.83;;;1.60;;
39612;SDS011;25303;48.896;13.342;2023-05-10T03:13:53;2.25;;;1.48;;
39612;SDS011;25303;48.896;13.342;2023-05-10T03:16:47;2.30;;;1.65;;
39612;SDS011;25303;48.896;13.342;2023-05-10T03:19:38;2.35;;;1.63;;
39612;SDS011;25303;48.896;13.342;2023-05-10T03:22:29;2.63;;;1.58;;
39612;SDS011;25303;48.896;13.342;2023-05-10T03:25:15;2.60;;;1.70;;
39612;SDS011;25303;48.896;13.342;2023-05-10T03:28:00;3.70;;;1.63;;
39612;SDS011;25303;48.896;13.342;2023-05-10T03:30:45;2.80;;;1.55;;
39612;SDS011;25303;48.896;13.342;2023-05-10T03:33:29;3.15;;;1.73;;
39612;SDS011;25303;48.896;13.342;2023-05-10T03:36:13;3.88;;;1.85;;
39612;SDS011;25303;48.896;13.342;2023-05-10T03:38:57;2.90;;;1.65;;
39612;SDS011;25303;48.896;13.342;2023-05-10T03:41:41;2.58;;;1.73;;
39612;SDS011;25303;48.896;13.342;2023-05-10T03:44:24;2.95;;;1.63;;
39612;SDS011;25303;48.896;13.342;2023-05-10T03:47:08;2.08;;;1.70;;
39612;SDS011;25303;48.896;13.342;2023-05-10T03:49:51;3.75;;;1.48;;
39612;SDS011;25303;48.896;13.342;2023-05-10T03:52:34;2.75;;;1.52;;
39612;SDS011;25303;48.896;13.342;2023-05-10T03:55:17;2.25;;;1.65;;
39612;SDS011;25303;48.896;13.342;2023-05-10T03:58:00;2.70;;;1.77;;
39612;SDS011;25303;48.896;13.342;2023-05-10T04:00:43;3.20;;;1.90;;
39612;SDS011;25303;48.896;13.342;2023-05-10T04:03:29;1.98;;;1.50;;
39612;SDS011;25303;48.896;13.342;2023-05-10T04:06:13;2.72;;;1.60;;
39612;SDS011;25303;48.896;13.342;2023-05-10T04:08:56;2.42;;;1.60;;
39612;SDS011;25303;48.896;13.342;2023-05-10T04:14:23;1.70;;;1.20;;
39612;SDS011;25303;48.896;13.342;2023-05-10T04:17:07;2.47;;;1.40;;
39612;SDS011;25303;48.896;13.342;2023-05-10T04:19:51;2.30;;;1.45;;
39612;SDS011;25303;48.896;13.342;2023-05-10T04:22:36;3.28;;;1.52;;
39612;SDS011;25303;48.896;13.342;2023-05-10T04:25:20;3.63;;;1.80;;
39612;SDS011;25303;48.896;13.342;2023-05-10T04:28:04;2.50;;;1.73;;
39612;SDS011;25303;48.896;13.342;2023-05-10T04:30:49;3.38;;;1.70;;
39612;SDS011;25303;48.896;13.342;2023-05-10T04:33:32;2.30;;;1.70;;
39612;SDS011;25303;48.896;13.342;2023-05-10T04:36:17;2.45;;;1.52;;
39612;SDS011;25303;48.896;13.342;2023-05-10T04:39:00;2.50;;;1.77;;
39612;SDS011;25303;48.896;13.342;2023-05-10T04:41:44;1.90;;;1.50;;
39612;SDS011;25303;48.896;13.342;2023-05-10T04:44:27;3.83;;;1.88;;
39612;SDS011;25303;48.896;13.342;2023-05-10T04:47:10;2.78;;;1.80;;
39612;SDS011;25303;48.896;13.342;2023-05-10T04:49:54;2.50;;;1.70;;
39612;SDS011;25303;48.896;13.342;2023-05-10T04:52:38;3.42;;;1.80;;
39612;SDS011;25303;48.896;13.342;2023-05-10T04:55:21;3.10;;;1.85;;
39612;SDS011;25303;48.896;13.342;2023-05-10T04:58:05;3.13;;;1.90;;
39612;SDS011;25303;48.896;13.342;2023-05-10T05:00:48;5.63;;;2.97;;
39612;SDS011;25303;48.896;13.342;2023-05-10T05:03:31;3.90;;;2.50;;
39612;SDS011;25303;48.896;13.342;2023-05-10T05:06:15;2.92;;;1.90;;
39612;SDS011;25303;48.896;13.342;2023-05-10T05:08:59;3.47;;;2.30;;
39612;SDS011;25303;48.896;13.342;2023-05-10T05:14:26;2.40;;;1.70;;
39612;SDS011;25303;48.896;13.342;2023-05-10T05:17:09;3.20;;;1.67;;
39612;SDS011;25303;48.896;13.342;2023-05-10T05:19:52;2.58;;;1.50;;
39612;SDS011;25303;48.896;13.342;2023-05-10T05:22:36;1.90;;;1.48;;
39612;SDS011;25303;48.896;13.342;2023-05-10T05:25:20;2.38;;;1.45;;
39612;SDS011;25303;48.896;13.342;2023-05-10T05:28:04;2.10;;;1.55;;
39612;SDS011;25303;48.896;13.342;2023-05-10T05:30:47;2.40;;;1.50;;
39612;SDS011;25303;48.896;13.342;2023-05-10T05:33:31;2.03;;;1.50;;
39612;SDS011;25303;48.896;13.342;2023-05-10T05:36:14;3.03;;;1.65;;
39612;SDS011;25303;48.896;13.342;2023-05-10T05:38:57;2.30;;;1.73;;
39612;SDS011;25303;48.896;13.342;2023-05-10T05:41:41;2.60;;;1.60;;
39612;SDS011;25303;48.896;13.342;2023-05-10T05:44:25;4.45;;;1.73;;
39612;SDS011;25303;48.896;13.342;2023-05-10T05:47:10;3.03;;;1.95;;
39612;SDS011;25303;48.896;13.342;2023-05-10T05:49:54;3.07;;;2.03;;
39612;SDS011;25303;48.896;13.342;2023-05-10T05:52:37;3.63;;;1.88;;
39612;SDS011;25303;48.896;13.342;2023-05-10T05:55:20;2.67;;;1.80;;
39612;SDS011;25303;48.896;13.342;2023-05-10T05:58:04;4.50;;;1.65;;
39612;SDS011;25303;48.896;13.342;2023-05-10T06:00:47;4.25;;;1.83;;
39612;SDS011;25303;48.896;13.342;2023-05-10T06:03:31;2.53;;;1.70;;
39612;SDS011;25303;48.896;13.342;2023-05-10T06:06:14;2.17;;;1.55;;
39612;SDS011;25303;48.896;13.342;2023-05-10T06:08:57;1.95;;;1.45;;
39612;SDS011;25303;48.896;13.342;2023-05-10T06:11:40;2.95;;;1.80;;
39612;SDS011;25303;48.896;13.342;2023-05-10T06:14:24;2.40;;;1.55;;
39612;SDS011;25303;48.896;13.342;2023-05-10T06:17:07;3.30;;;1.63;;
39612;SDS011;25303;48.896;13.342;2023-05-10T06:19:50;3.20;;;1.80;;
39612;SDS011;25303;48.896;13.342;2023-05-10T06:22:33;3.63;;;1.80;;
39612;SDS011;25303;48.896;13.342;2023-05-10T06:25:16;2.10;;;1.60;;
39612;SDS011;25303;48.896;13.342;2023-05-10T06:28:00;2.58;;;1.90;;
39612;SDS011;25303;48.896;13.342;2023-05-10T06:30:45;2.53;;;1.67;;
39612;SDS011;25303;48.896;13.342;2023-05-10T06:33:29;2.75;;;1.80;;
39612;SDS011;25303;48.896;13.342;2023-05-10T06:36:13;2.40;;;1.67;;
39612;SDS011;25303;48.896;13.342;2023-05-10T06:38:56;1.80;;;1.40;;
39612;SDS011;25303;48.896;13.342;2023-05-10T06:41:40;1.85;;;1.40;;
39612;SDS011;25303;48.896;13.342;2023-05-10T06:44:23;2.30;;;1.85;;
39612;SDS011;25303;48.896;13.342;2023-05-10T06:47:07;3.28;;;1.88;;
39612;SDS011;25303;48.896;13.342;2023-05-10T06:52:33;2.53;;;1.80;;
39612;SDS011;25303;48.896;13.342;2023-05-10T06:55:17;2.83;;;1.85;;
39612;SDS011;25303;48.896;13.342;2023-05-10T06:58:00;2.38;;;1.80;;
39612;SDS011;25303;48.896;13.342;2023-05-10T07:00:43;3.30;;;2.28;;
39612;SDS011;25303;48.896;13.342;2023-05-10T07:06:12;3.00;;;2.15;;
39612;SDS011;25303;48.896;13.342;2023-05-10T07:09:14;3.17;;;2.28;;
39612;SDS011;25303;48.896;13.342;2023-05-10T07:11:57;3.78;;;2.33;;
39612;SDS011;25303;48.896;13.342;2023-05-10T07:14:40;3.28;;;2.20;;
39612;SDS011;25303;48.896;13.342;2023-05-10T07:17:23;3.08;;;2.10;;
39612;SDS011;25303;48.896;13.342;2023-05-10T07:20:08;2.53;;;1.75;;
39612;SDS011;25303;48.896;13.342;2023-05-10T07:22:52;2.53;;;1.80;;
39612;SDS011;25303;48.896;13.342;2023-05-10T07:25:35;2.40;;;1.70;;
39612;SDS011;25303;48.896;13.342;2023-05-10T07:28:19;3.40;;;2.03;;
39612;SDS011;25303;48.896;13.342;2023-05-10T07:31:02;3.50;;;2.22;;
39612;SDS011;25303;48.896;13.342;2023-05-10T07:33:45;2.97;;;2.08;;
39612;SDS011;25303;48.896;13.342;2023-05-10T07:36:30;2.85;;;2.10;;
39612;SDS011;25303;48.896;13.342;2023-05-10T07:39:13;3.30;;;2.03;;
39612;SDS011;25303;48.896;13.342;2023-05-10T07:42:07;3.50;;;2.10;;
39612;SDS011;25303;48.896;13.342;2023-05-10T07:44:50;3.53;;;2.63;;
39612;SDS011;25303;48.896;13.342;2023-05-10T07:47:33;3.05;;;2.30;;
39612;SDS011;25303;48.896;13.342;2023-05-10T07:50:16;3.95;;;2.78;;
39612;SDS011;25303;48.896;13.342;2023-05-10T07:53:01;6.95;;;2.72;;
39612;SDS011;25303;48.896;13.342;2023-05-10T07:55:44;3.83;;;2.53;;
39612;SDS011;25303;48.896;13.342;2023-05-10T07:58:33;3.25;;;2.42;;
39612;SDS011;25303;48.896;13.342;2023-05-10T08:01:16;3.33;;;2.17;;
39612;SDS011;25303;48.896;13.342;2023-05-10T08:03:59;2.70;;;2.00;;
39612;SDS011;25303;48.896;13.342;2023-05-10T08:06:43;3.30;;;2.20;;
39612;SDS011;25303;48.896;13.342;2023-05-10T08:09:27;4.90;;;2.47;;
39612;SDS011;25303;48.896;13.342;2023-05-10T08:12:10;3.67;;;2.33;;
39612;SDS011;25303;48.896;13.342;2023-05-10T08:14:53;2.78;;;2.05;;
39612;SDS011;25303;48.896;13.342;2023-05-10T08:17:36;3.22;;;2.40;;
39612;SDS011;25303;48.896;13.342;2023-05-10T08:20:20;2.80;;;2.08;;
39612;SDS011;25303;48.896;13.342;2023-05-10T08:23:03;2.92;;;1.92;;
39612;SDS011;25303;48.896;13.342;2023-05-10T08:25:47;4.40;;;2.30;;
39612;SDS011;25303;48.896;13.342;2023-05-10T08:28:30;2.58;;;1.83;;
39612;SDS011;25303;48.896;13.342;2023-05-10T08:31:14;4.20;;;2.35;;
39612;SDS011;25303;48.896;13.342;2023-05-10T08:33:57;5.35;;;2.78;;
39612;SDS011;25303;48.896;13.342;2023-05-10T08:36:40;4.50;;;2.47;;
39612;SDS011;25303;48.896;13.342;2023-05-10T08:39:23;3.42;;;2.15;;
39612;SDS011;25303;48.896;13.342;2023-05-10T08:42:12;6.72;;;3.03;;
39612;SDS011;25303;48.896;13.342;2023-05-10T08:44:59;4.88;;;2.83;;
39612;SDS011;25303;48.896;13.342;2023-05-10T08:47:44;5.57;;;2.92;;
39612;SDS011;25303;48.896;13.342;2023-05-10T08:50:28;3.40;;;2.13;;
39612;SDS011;25303;48.896;13.342;2023-05-10T08:53:13;3.38;;;2.33;;
39612;SDS011;25303;48.896;13.342;2023-05-10T08:55:57;3.08;;;2.17;;
39612;SDS011;25303;48.896;13.342;2023-05-10T08:58:42;5.00;;;3.20;;
39612;SDS011;25303;48.896;13.342;2023-05-10T09:01:25;3.53;;;2.53;;
39612;SDS011;25303;48.896;13.342;2023-05-10T09:04:09;2.80;;;2.30;;
39612;SDS011;25303;48.896;13.342;2023-05-10T09:06:53;4.35;;;2.80;;
39612;SDS011;25303;48.896;13.342;2023-05-10T09:09:37;4.10;;;2.65;;
39612;SDS011;25303;48.896;13.342;2023-05-10T09:12:20;6.60;;;3.05;;
39612;SDS011;25303;48.896;13.342;2023-05-10T09:15:05;5.22;;;3.10;;
39612;SDS011;25303;48.896;13.342;2023-05-10T09:17:49;3.72;;;2.60;;
39612;SDS011;25303;48.896;13.342;2023-05-10T09:20:32;3.28;;;2.33;;
39612;SDS011;25303;48.896;13.342;2023-05-10T09:23:15;4.63;;;3.17;;
39612;SDS011;25303;48.896;13.342;2023-05-10T09:26:02;5.32;;;3.30;;
39612;SDS011;25303;48.896;13.342;2023-05-10T09:28:52;3.63;;;2.67;;
39612;SDS011;25303;48.896;13.342;2023-05-10T09:31:45;4.05;;;3.08;;
39612;SDS011;25303;48.896;13.342;2023-05-10T09:34:32;3.08;;;2.30;;
39612;SDS011;25303;48.896;13.342;2023-05-10T09:37:16;3.25;;;2.35;;
39612;SDS011;25303;48.896;13.342;2023-05-10T09:39:59;4.75;;;3.05;;
39612;SDS011;25303;48.896;13.342;2023-05-10T09:42:42;4.65;;;3.20;;
39612;SDS011;25303;48.896;13.342;2023-05-10T09:45:33;3.85;;;2.65;;
39612;SDS011;25303;48.896;13.342;2023-05-10T09:48:21;3.85;;;2.83;;
39612;SDS011;25303;48.896;13.342;2023-05-10T09:51:06;5.63;;;2.80;;
39612;SDS011;25303;48.896;13.342;2023-05-10T09:53:50;5.63;;;3.83;;
39612;SDS011;25303;48.896;13.342;2023-05-10T09:56:51;5.00;;;3.25;;
39612;SDS011;25303;48.896;13.342;2023-05-10T09:59:34;4.93;;;3.45;;
39612;SDS011;25303;48.896;13.342;2023-05-10T10:02:18;5.07;;;3.63;;
39612;SDS011;25303;48.896;13.342;2023-05-10T10:05:02;5.07;;;3.67;;
39612;SDS011;25303;48.896;13.342;2023-05-10T10:07:47;4.57;;;3.50;;
39612;SDS011;25303;48.896;13.342;2023-05-10T10:10:33;3.80;;;3.00;;
39612;SDS011;25303;48.896;13.342;2023-05-10T10:13:16;6.55;;;3.60;;
39612;SDS011;25303;48.896;13.342;2023-05-10T10:15:59;5.22;;;3.65;;
39612;SDS011;25303;48.896;13.342;2023-05-10T10:18:43;6.97;;;3.17;;
39612;SDS011;25303;48.896;13.342;2023-05-10T10:21:27;5.32;;;4.13;;
39612;SDS011;25303;48.896;13.342;2023-05-10T10:26:55;4.43;;;3.20;;
39612;SDS011;25303;48.896;13.342;2023-05-10T10:29:47;4.72;;;3.47;;
39612;SDS011;25303;48.896;13.342;2023-05-10T10:32:42;6.15;;;4.78;;
39612;SDS011;25303;48.896;13.342;2023-05-10T10:36:07;4.00;;;3.17;;
39612;SDS011;25303;48.896;13.342;2023-05-10T10:38:55;5.20;;;3.70;;
39612;SDS011;25303;48.896;13.342;2023-05-10T10:41:48;5.05;;;3.60;;
39612;SDS011;25303;48.896;13.342;2023-05-10T10:44:34;4.07;;;3.05;;
39612;SDS011;25303;48.896;13.342;2023-05-10T10:47:23;3.97;;;2.80;;
39612;SDS011;25303;48.896;13.342;2023-05-10T10:50:08;4.55;;;3.47;;
39612;SDS011;25303;48.896;13.342;2023-05-10T10:52:54;3.47;;;2.55;;
39612;SDS011;25303;48.896;13.342;2023-05-10T10:56:03;3.25;;;2.35;;
39612;SDS011;25303;48.896;13.342;2023-05-10T10:58:51;2.00;;;1.63;;
39612;SDS011;25303;48.896;13.342;2023-05-10T11:01:35;2.00;;;1.50;;
39612;SDS011;25303;48.896;13.342;2023-05-10T11:04:18;2.30;;;1.50;;
39612;SDS011;25303;48.896;13.342;2023-05-10T11:07:15;2.15;;;1.13;;
39612;SDS011;25303;48.896;13.342;2023-05-10T11:10:03;1.42;;;1.23;;
39612;SDS011;25303;48.896;13.342;2023-05-10T11:13:00;1.83;;;1.35;;
39612;SDS011;25303;48.896;13.342;2023-05-10T11:15:47;1.35;;;1.20;;
39612;SDS011;25303;48.896;13.342;2023-05-10T11:18:31;2.05;;;1.08;;
39612;SDS011;25303;48.896;13.342;2023-05-10T11:21:15;1.80;;;1.10;;
39612;SDS011;25303;48.896;13.342;2023-05-10T11:23:58;2.05;;;1.10;;
39612;SDS011;25303;48.896;13.342;2023-05-10T11:26:42;1.60;;;1.00;;
39612;SDS011;25303;48.896;13.342;2023-05-10T11:29:27;1.30;;;0.80;;
39612;SDS011;25303;48.896;13.342;2023-05-10T11:32:10;1.58;;;1.08;;
39612;SDS011;25303;48.896;13.342;2023-05-10T11:34:54;5.90;;;3.42;;
39612;SDS011;25303;48.896;13.342;2023-05-10T11:37:37;5.43;;;2.97;;
39612;SDS011;25303;48.896;13.342;2023-05-10T11:40:22;3.70;;;2.03;;
39612;SDS011;25303;48.896;13.342;2023-05-10T11:43:06;4.45;;;2.65;;
39612;SDS011;25303;48.896;13.342;2023-05-10T11:45:53;3.20;;;2.20;;
39612;SDS011;25303;48.896;13.342;2023-05-10T11:48:38;8.88;;;4.78;;
39612;SDS011;25303;48.896;13.342;2023-05-10T11:51:21;10.60;;;5.33;;
39612;SDS011;25303;48.896;13.342;2023-05-10T11:54:06;5.18;;;3.15;;
39612;SDS011;25303;48.896;13.342;2023-05-10T11:56:50;3.78;;;2.17;;
39612;SDS011;25303;48.896;13.342;2023-05-10T11:59:34;4.93;;;3.10;;
39612;SDS011;25303;48.896;13.342;2023-05-10T12:05:04;6.68;;;3.90;;
39612;SDS011;25303;48.896;13.342;2023-05-10T12:07:48;6.00;;;3.70;;
39612;SDS011;25303;48.896;13.342;2023-05-10T12:10:34;4.70;;;2.70;;
39612;SDS011;25303;48.896;13.342;2023-05-10T12:13:17;2.30;;;1.70;;
39612;SDS011;25303;48.896;13.342;2023-05-10T12:18:57;3.67;;;2.38;;
39612;SDS011;25303;48.896;13.342;2023-05-10T12:21:42;2.40;;;1.52;;
39612;SDS011;25303;48.896;13.342;2023-05-10T12:24:26;1.90;;;1.42;;
39612;SDS011;25303;48.896;13.342;2023-05-10T12:27:09;2.40;;;1.48;;
39612;SDS011;25303;48.896;13.342;2023-05-10T12:29:53;3.67;;;2.85;;
39612;SDS011;25303;48.896;13.342;2023-05-10T12:32:37;3.08;;;2.00;;
39612;SDS011;25303;48.896;13.342;2023-05-10T12:41:13;4.40;;;1.08;;
39612;SDS011;25303;48.896;13.342;2023-05-10T12:43:57;1.00;;;0.80;;
39612;SDS011;25303;48.896;13.342;2023-05-10T12:46:40;2.15;;;1.00;;
39612;SDS011;25303;48.896;13.342;2023-05-10T12:49:23;1.75;;;0.75;;
39612;SDS011;25303;48.896;13.342;2023-05-10T12:52:07;1.30;;;0.80;;
39612;SDS011;25303;48.896;13.342;2023-05-10T12:54:51;1.25;;;0.90;;
39612;SDS011;25303;48.896;13.342;2023-05-10T12:57:34;0.82;;;0.70;;
39612;SDS011;25303;48.896;13.342;2023-05-10T13:00:18;2.20;;;0.80;;
39612;SDS011;25303;48.896;13.342;2023-05-10T13:03:01;1.10;;;0.80;;
39612;SDS011;25303;48.896;13.342;2023-05-10T13:05:44;0.80;;;0.70;;
39612;SDS011;25303;48.896;13.342;2023-05-10T13:08:29;1.33;;;0.77;;
39612;SDS011;25303;48.896;13.342;2023-05-10T13:11:15;0.70;;;0.65;;
39612;SDS011;25303;48.896;13.342;2023-05-10T13:13:58;2.40;;;0.70;;
39612;SDS011;25303;48.896;13.342;2023-05-10T13:16:42;0.70;;;0.68;;
39612;SDS011;25303;48.896;13.342;2023-05-10T13:19:26;1.73;;;0.50;;
39612;SDS011;25303;48.896;13.342;2023-05-10T13:22:09;0.60;;;0.60;;
39612;SDS011;25303;48.896;13.342;2023-05-10T13:24:53;0.50;;;0.40;;
39612;SDS011;25303;48.896;13.342;2023-05-10T13:27:36;0.65;;;0.60;;
39612;SDS011;25303;48.896;13.342;2023-05-10T13:30:19;0.90;;;0.60;;
39612;SDS011;25303;48.896;13.342;2023-05-10T13:33:03;0.63;;;0.52;;
39612;SDS011;25303;48.896;13.342;2023-05-10T13:38:31;0.95;;;0.50;;
39612;SDS011;25303;48.896;13.342;2023-05-10T13:41:15;0.73;;;0.55;;
39612;SDS011;25303;48.896;13.342;2023-05-10T13:43:59;0.70;;;0.50;;
39612;SDS011;25303;48.896;13.342;2023-05-10T13:46:41;1.85;;;0.50;;
39612;SDS011;25303;48.896;13.342;2023-05-10T13:49:25;0.90;;;0.60;;
39612;SDS011;25303;48.896;13.342;2023-05-10T13:52:08;1.00;;;0.73;;
39612;SDS011;25303;48.896;13.342;2023-05-10T13:54:51;1.08;;;0.57;;
39612;SDS011;25303;48.896;13.342;2023-05-10T14:00:20;0.75;;;0.60;;
39612;SDS011;25303;48.896;13.342;2023-05-10T14:03:04;1.03;;;0.83;;
39612;SDS011;25303;48.896;13.342;2023-05-10T14:05:47;0.60;;;0.60;;
39612;SDS011;25303;48.896;13.342;2023-05-10T14:08:30;1.20;;;0.70;;
39612;SDS011;25303;48.896;13.342;2023-05-10T14:11:13;0.85;;;0.60;;
39612;SDS011;25303;48.896;13.342;2023-05-10T14:13:58;1.00;;;0.60;;
39612;SDS011;25303;48.896;13.342;2023-05-10T14:16:41;1.02;;;0.57;;
39612;SDS011;25303;48.896;13.342;2023-05-10T14:19:25;0.65;;;0.57;;
39612;SDS011;25303;48.896;13.342;2023-05-10T14:22:09;0.50;;;0.50;;
39612;SDS011;25303;48.896;13.342;2023-05-10T14:24:52;0.40;;;0.40;;
39612;SDS011;25303;48.896;13.342;2023-05-10T14:27:35;0.50;;;0.50;;
39612;SDS011;25303;48.896;13.342;2023-05-10T14:30:20;0.73;;;0.50;;
39612;SDS011;25303;48.896;13.342;2023-05-10T14:33:03;0.70;;;0.50;;
39612;SDS011;25303;48.896;13.342;2023-05-10T14:35:46;0.43;;;0.43;;
39612;SDS011;25303;48.896;13.342;2023-05-10T14:38:30;0.70;;;0.47;;
39612;SDS011;25303;48.896;13.342;2023-05-10T14:41:13;2.17;;;0.70;;
39612;SDS011;25303;48.896;13.342;2023-05-10T14:43:57;1.20;;;0.75;;
39612;SDS011;25303;48.896;13.342;2023-05-10T14:46:41;0.90;;;0.70;;
39612;SDS011;25303;48.896;13.342;2023-05-10T14:49:25;0.75;;;0.70;;
39612;SDS011;25303;48.896;13.342;2023-05-10T14:52:09;0.90;;;0.60;;
39612;SDS011;25303;48.896;13.342;2023-05-10T14:54:53;1.55;;;0.70;;
39612;SDS011;25303;48.896;13.342;2023-05-10T14:57:36;0.60;;;0.60;;
39612;SDS011;25303;48.896;13.342;2023-05-10T15:00:19;0.55;;;0.52;;
39612;SDS011;25303;48.896;13.342;2023-05-10T15:03:05;0.70;;;0.43;;
39612;SDS011;25303;48.896;13.342;2023-05-10T15:08:31;1.13;;;0.40;;
39612;SDS011;25303;48.896;13.342;2023-05-10T15:11:14;1.00;;;0.70;;
39612;SDS011;25303;48.896;13.342;2023-05-10T15:13:57;1.10;;;0.80;;
39612;SDS011;25303;48.896;13.342;2023-05-10T15:16:40;0.80;;;0.70;;
39612;SDS011;25303;48.896;13.342;2023-05-10T15:19:24;0.70;;;0.50;;
39612;SDS011;25303;48.896;13.342;2023-05-10T15:22:08;0.63;;;0.60;;
39612;SDS011;25303;48.896;13.342;2023-05-10T15:24:51;1.70;;;0.50;;
39612;SDS011;25303;48.896;13.342;2023-05-10T15:27:34;0.50;;;0.40;;
39612;SDS011;25303;48.896;13.342;2023-05-10T15:30:18;0.65;;;0.40;;
39612;SDS011;25303;48.896;13.342;2023-05-10T15:33:01;1.08;;;0.40;;
39612;SDS011;25303;48.896;13.342;2023-05-10T15:35:45;0.50;;;0.45;;
39612;SDS011;25303;48.896;13.342;2023-05-10T15:38:28;1.23;;;0.40;;
39612;SDS011;25303;48.896;13.342;2023-05-10T15:43:56;0.32;;;0.32;;
39612;SDS011;25303;48.896;13.342;2023-05-10T15:49:23;0.40;;;0.40;;
39612;SDS011;25303;48.896;13.342;2023-05-10T15:52:08;0.40;;;0.40;;
39612;SDS011;25303;48.896;13.342;2023-05-10T15:54:51;1.13;;;0.52;;
39612;SDS011;25303;48.896;13.342;2023-05-10T15:57:35;0.43;;;0.43;;
39612;SDS011;25303;48.896;13.342;2023-05-10T16:00:18;0.55;;;0.50;;
39612;SDS011;25303;48.896;13.342;2023-05-10T16:03:02;1.38;;;0.40;;
39612;SDS011;25303;48.896;13.342;2023-05-10T16:05:45;1.10;;;0.70;;
39612;SDS011;25303;48.896;13.342;2023-05-10T16:08:31;0.60;;;0.60;;
39612;SDS011;25303;48.896;13.342;2023-05-10T16:11:14;0.50;;;0.40;;
39612;SDS011;25303;48.896;13.342;2023-05-10T16:13:57;0.60;;;0.50;;
39612;SDS011;25303;48.896;13.342;2023-05-10T16:16:40;0.80;;;0.60;;
39612;SDS011;25303;48.896;13.342;2023-05-10T16:19:23;0.80;;;0.70;;
39612;SDS011;25303;48.896;13.342;2023-05-10T16:22:10;0.57;;;0.50;;
39612;SDS011;25303;48.896;13.342;2023-05-10T16:24:54;0.55;;;0.50;;
39612;SDS011;25303;48.896;13.342;2023-05-10T16:27:39;1.48;;;0.77;;
39612;SDS011;25303;48.896;13.342;2023-05-10T16:30:23;0.55;;;0.50;;
39612;SDS011;25303;48.896;13.342;2023-05-10T16:33:07;0.70;;;0.50;;
39612;SDS011;25303;48.896;13.342;2023-05-10T16:35:50;0.70;;;0.50;;
39612;SDS011;25303;48.896;13.342;2023-05-10T16:38:33;0.93;;;0.60;;
39612;SDS011;25303;48.896;13.342;2023-05-10T16:41:18;0.60;;;0.60;;
39612;SDS011;25303;48.896;13.342;2023-05-10T16:44:01;0.60;;;0.60;;
39612;SDS011;25303;48.896;13.342;2023-05-10T16:46:45;1.30;;;1.02;;
39612;SDS011;25303;48.896;13.342;2023-05-10T16:49:29;1.02;;;0.90;;
39612;SDS011;25303;48.896;13.342;2023-05-10T16:52:12;1.50;;;0.93;;
39612;SDS011;25303;48.896;13.342;2023-05-10T16:54:55;1.42;;;1.00;;
39612;SDS011;25303;48.896;13.342;2023-05-10T16:57:39;1.17;;;0.85;;